Brookside Village, Texas
Current Conditions -  °F | °C
As of 10:39 AM on Thursday 30 Oct 2014 (Local Time) from KLVJ Reporting Station
Broken Clouds Broken Clouds  
Wind Chill: 71°   Ceiling: 1900
Heat Index: 71°   Visibility: 10mi
Dew Point: 56°   Wind: 6mph
Humidity: 59%   Direction: 70°ENE
Pressure: 30.15"   Gusts: NA
Location:  29.5651°N, 95.2786°W
Report Text: KLVJ 301539Z AUTO 07005KT 10SM BKN019 22/13 A3015 RMK AO2 T02170133
Loading
Personal Weather Stations






























Interactive Weather Map
Tropical Storm Tracking
New forecast layout! Learn more

10-Day Weather Forecast

Advertisements
Track Severe Weather on mobile